sensor_id;sensor_type;location;lat;lon;timestamp;P1;durP1;ratioP1;P2;durP2;ratioP2
12271;SDS011;6198;51.446;6.698;2022-09-25T00:00:45;12.63;;;5.30;;
12271;SDS011;6198;51.446;6.698;2022-09-25T00:03:12;9.20;;;4.57;;
12271;SDS011;6198;51.446;6.698;2022-09-25T00:05:38;12.23;;;5.63;;
12271;SDS011;6198;51.446;6.698;2022-09-25T00:08:05;8.77;;;4.60;;
12271;SDS011;6198;51.446;6.698;2022-09-25T00:10:32;16.13;;;5.00;;
12271;SDS011;6198;51.446;6.698;2022-09-25T00:12:58;11.87;;;5.07;;
12271;SDS011;6198;51.446;6.698;2022-09-25T00:15:24;12.47;;;4.63;;
12271;SDS011;6198;51.446;6.698;2022-09-25T00:17:50;14.33;;;5.67;;
12271;SDS011;6198;51.446;6.698;2022-09-25T00:20:16;12.50;;;5.37;;
12271;SDS011;6198;51.446;6.698;2022-09-25T00:22:44;13.63;;;5.70;;
12271;SDS011;6198;51.446;6.698;2022-09-25T00:25:10;15.70;;;5.57;;
12271;SDS011;6198;51.446;6.698;2022-09-25T00:27:39;14.30;;;5.67;;
12271;SDS011;6198;51.446;6.698;2022-09-25T00:30:06;17.63;;;5.33;;
12271;SDS011;6198;51.446;6.698;2022-09-25T00:32:32;9.73;;;5.00;;
12271;SDS011;6198;51.446;6.698;2022-09-25T00:34:58;13.13;;;5.00;;
12271;SDS011;6198;51.446;6.698;2022-09-25T00:37:24;12.27;;;4.27;;
12271;SDS011;6198;51.446;6.698;2022-09-25T00:39:52;14.57;;;5.67;;
12271;SDS011;6198;51.446;6.698;2022-09-25T00:42:18;13.77;;;4.57;;
12271;SDS011;6198;51.446;6.698;2022-09-25T00:47:11;11.73;;;4.60;;
12271;SDS011;6198;51.446;6.698;2022-09-25T00:49:37;12.07;;;4.30;;
12271;SDS011;6198;51.446;6.698;2022-09-25T00:52:04;10.57;;;3.87;;
12271;SDS011;6198;51.446;6.698;2022-09-25T00:54:32;15.17;;;4.87;;
12271;SDS011;6198;51.446;6.698;2022-09-25T00:56:59;15.13;;;3.93;;
12271;SDS011;6198;51.446;6.698;2022-09-25T00:59:27;9.80;;;4.07;;
12271;SDS011;6198;51.446;6.698;2022-09-25T01:01:55;12.60;;;4.03;;
12271;SDS011;6198;51.446;6.698;2022-09-25T01:04:21;8.77;;;3.80;;
12271;SDS011;6198;51.446;6.698;2022-09-25T01:06:47;12.63;;;4.23;;
12271;SDS011;6198;51.446;6.698;2022-09-25T01:09:13;12.10;;;3.70;;
12271;SDS011;6198;51.446;6.698;2022-09-25T01:11:39;9.43;;;3.60;;
12271;SDS011;6198;51.446;6.698;2022-09-25T01:14:05;12.30;;;3.77;;
12271;SDS011;6198;51.446;6.698;2022-09-25T01:24:49;10.73;;;3.43;;
12271;SDS011;6198;51.446;6.698;2022-09-25T01:32:11;9.47;;;3.20;;
12271;SDS011;6198;51.446;6.698;2022-09-25T01:37:14;9.57;;;3.80;;
12271;SDS011;6198;51.446;6.698;2022-09-25T01:39:44;12.10;;;3.80;;
12271;SDS011;6198;51.446;6.698;2022-09-25T01:42:13;11.20;;;3.63;;
12271;SDS011;6198;51.446;6.698;2022-09-25T01:44:42;9.87;;;4.10;;
12271;SDS011;6198;51.446;6.698;2022-09-25T01:47:12;9.77;;;4.07;;
12271;SDS011;6198;51.446;6.698;2022-09-25T01:49:43;8.93;;;3.90;;
12271;SDS011;6198;51.446;6.698;2022-09-25T01:52:14;11.30;;;4.20;;
12271;SDS011;6198;51.446;6.698;2022-09-25T01:54:46;11.90;;;4.73;;
12271;SDS011;6198;51.446;6.698;2022-09-25T01:59:46;13.07;;;3.80;;
12271;SDS011;6198;51.446;6.698;2022-09-25T02:02:15;11.77;;;3.90;;
12271;SDS011;6198;51.446;6.698;2022-09-25T02:05:26;12.10;;;4.33;;
12271;SDS011;6198;51.446;6.698;2022-09-25T02:07:33;14.63;;;4.80;;
12271;SDS011;6198;51.446;6.698;2022-09-25T02:10:20;10.03;;;4.23;;
12271;SDS011;6198;51.446;6.698;2022-09-25T02:12:48;12.87;;;4.50;;
12271;SDS011;6198;51.446;6.698;2022-09-25T02:15:17;9.47;;;3.93;;
12271;SDS011;6198;51.446;6.698;2022-09-25T02:21:08;11.07;;;4.43;;
12271;SDS011;6198;51.446;6.698;2022-09-25T02:26:27;9.60;;;4.50;;
12271;SDS011;6198;51.446;6.698;2022-09-25T02:28:54;13.73;;;4.20;;
12271;SDS011;6198;51.446;6.698;2022-09-25T02:31:20;16.03;;;4.40;;
12271;SDS011;6198;51.446;6.698;2022-09-25T02:33:48;17.80;;;5.43;;
12271;SDS011;6198;51.446;6.698;2022-09-25T02:36:15;12.07;;;4.63;;
12271;SDS011;6198;51.446;6.698;2022-09-25T02:38:42;11.33;;;4.80;;
12271;SDS011;6198;51.446;6.698;2022-09-25T02:43:44;12.20;;;5.00;;
12271;SDS011;6198;51.446;6.698;2022-09-25T02:46:17;9.87;;;4.83;;
12271;SDS011;6198;51.446;6.698;2022-09-25T02:48:51;11.60;;;4.93;;
12271;SDS011;6198;51.446;6.698;2022-09-25T02:51:29;10.33;;;5.20;;
12271;SDS011;6198;51.446;6.698;2022-09-25T02:54:11;11.10;;;5.10;;
12271;SDS011;6198;51.446;6.698;2022-09-25T02:59:26;12.33;;;5.47;;
12271;SDS011;6198;51.446;6.698;2022-09-25T03:01:53;10.20;;;5.10;;
12271;SDS011;6198;51.446;6.698;2022-09-25T03:04:20;11.83;;;6.17;;
12271;SDS011;6198;51.446;6.698;2022-09-25T03:06:47;11.30;;;5.20;;
12271;SDS011;6198;51.446;6.698;2022-09-25T03:09:13;12.60;;;5.33;;
12271;SDS011;6198;51.446;6.698;2022-09-25T03:11:40;14.23;;;4.43;;
12271;SDS011;6198;51.446;6.698;2022-09-25T03:14:07;13.10;;;4.57;;
12271;SDS011;6198;51.446;6.698;2022-09-25T03:19:00;11.60;;;4.73;;
12271;SDS011;6198;51.446;6.698;2022-09-25T03:21:26;13.97;;;4.70;;
12271;SDS011;6198;51.446;6.698;2022-09-25T03:23:51;12.23;;;4.27;;
12271;SDS011;6198;51.446;6.698;2022-09-25T03:26:20;10.60;;;4.20;;
12271;SDS011;6198;51.446;6.698;2022-09-25T03:28:46;15.87;;;4.50;;
12271;SDS011;6198;51.446;6.698;2022-09-25T03:31:12;13.87;;;3.77;;
12271;SDS011;6198;51.446;6.698;2022-09-25T03:33:39;13.27;;;4.77;;
12271;SDS011;6198;51.446;6.698;2022-09-25T03:38:33;11.27;;;3.70;;
12271;SDS011;6198;51.446;6.698;2022-09-25T03:40:59;13.40;;;3.67;;
12271;SDS011;6198;51.446;6.698;2022-09-25T03:43:26;7.97;;;3.10;;
12271;SDS011;6198;51.446;6.698;2022-09-25T03:45:52;8.63;;;3.57;;
12271;SDS011;6198;51.446;6.698;2022-09-25T03:48:18;9.87;;;2.90;;
12271;SDS011;6198;51.446;6.698;2022-09-25T03:50:44;8.23;;;2.90;;
12271;SDS011;6198;51.446;6.698;2022-09-25T03:53:10;11.10;;;3.30;;
12271;SDS011;6198;51.446;6.698;2022-09-25T03:55:36;12.27;;;3.43;;
12271;SDS011;6198;51.446;6.698;2022-09-25T03:58:02;12.13;;;4.17;;
12271;SDS011;6198;51.446;6.698;2022-09-25T04:00:28;11.57;;;3.53;;
12271;SDS011;6198;51.446;6.698;2022-09-25T04:02:54;14.07;;;3.20;;
12271;SDS011;6198;51.446;6.698;2022-09-25T04:05:21;12.10;;;3.83;;
12271;SDS011;6198;51.446;6.698;2022-09-25T04:07:47;15.83;;;4.03;;
12271;SDS011;6198;51.446;6.698;2022-09-25T04:10:13;11.23;;;3.33;;
12271;SDS011;6198;51.446;6.698;2022-09-25T04:12:39;10.47;;;3.37;;
12271;SDS011;6198;51.446;6.698;2022-09-25T04:15:07;10.93;;;3.40;;
12271;SDS011;6198;51.446;6.698;2022-09-25T04:17:34;7.03;;;3.03;;
12271;SDS011;6198;51.446;6.698;2022-09-25T04:20:00;8.40;;;2.90;;
12271;SDS011;6198;51.446;6.698;2022-09-25T04:22:26;12.83;;;3.13;;
12271;SDS011;6198;51.446;6.698;2022-09-25T04:24:52;14.83;;;3.37;;
12271;SDS011;6198;51.446;6.698;2022-09-25T04:27:20;7.70;;;2.80;;
12271;SDS011;6198;51.446;6.698;2022-09-25T04:29:46;8.47;;;3.20;;
12271;SDS011;6198;51.446;6.698;2022-09-25T04:32:13;9.07;;;3.30;;
12271;SDS011;6198;51.446;6.698;2022-09-25T04:34:57;10.00;;;3.50;;
12271;SDS011;6198;51.446;6.698;2022-09-25T04:37:24;7.13;;;3.27;;
12271;SDS011;6198;51.446;6.698;2022-09-25T04:39:53;12.00;;;3.50;;
12271;SDS011;6198;51.446;6.698;2022-09-25T04:42:20;8.20;;;3.13;;
12271;SDS011;6198;51.446;6.698;2022-09-25T04:44:52;10.83;;;2.83;;
12271;SDS011;6198;51.446;6.698;2022-09-25T04:47:22;12.17;;;3.00;;
12271;SDS011;6198;51.446;6.698;2022-09-25T04:49:48;12.43;;;3.70;;
12271;SDS011;6198;51.446;6.698;2022-09-25T04:52:14;12.90;;;3.53;;
12271;SDS011;6198;51.446;6.698;2022-09-25T04:54:41;12.23;;;3.17;;
12271;SDS011;6198;51.446;6.698;2022-09-25T04:57:08;12.43;;;3.00;;
12271;SDS011;6198;51.446;6.698;2022-09-25T04:59:34;9.70;;;3.50;;
12271;SDS011;6198;51.446;6.698;2022-09-25T05:02:01;14.03;;;3.33;;
12271;SDS011;6198;51.446;6.698;2022-09-25T05:04:27;13.40;;;3.40;;
12271;SDS011;6198;51.446;6.698;2022-09-25T05:06:53;11.43;;;3.20;;
12271;SDS011;6198;51.446;6.698;2022-09-25T05:09:19;10.00;;;3.07;;
12271;SDS011;6198;51.446;6.698;2022-09-25T05:11:45;12.50;;;3.63;;
12271;SDS011;6198;51.446;6.698;2022-09-25T05:14:11;14.53;;;3.80;;
12271;SDS011;6198;51.446;6.698;2022-09-25T05:16:37;8.50;;;3.10;;
12271;SDS011;6198;51.446;6.698;2022-09-25T05:19:03;9.63;;;3.07;;
12271;SDS011;6198;51.446;6.698;2022-09-25T05:21:29;10.20;;;3.50;;
12271;SDS011;6198;51.446;6.698;2022-09-25T05:23:56;12.37;;;3.23;;
12271;SDS011;6198;51.446;6.698;2022-09-25T05:26:22;8.70;;;3.40;;
12271;SDS011;6198;51.446;6.698;2022-09-25T05:28:48;13.33;;;3.90;;
12271;SDS011;6198;51.446;6.698;2022-09-25T05:31:15;11.43;;;3.90;;
12271;SDS011;6198;51.446;6.698;2022-09-25T05:33:41;15.63;;;3.70;;
12271;SDS011;6198;51.446;6.698;2022-09-25T05:36:08;9.27;;;3.43;;
12271;SDS011;6198;51.446;6.698;2022-09-25T05:38:35;11.03;;;4.10;;
12271;SDS011;6198;51.446;6.698;2022-09-25T05:41:02;10.63;;;3.80;;
12271;SDS011;6198;51.446;6.698;2022-09-25T05:43:29;8.27;;;4.00;;
12271;SDS011;6198;51.446;6.698;2022-09-25T05:45:55;13.97;;;4.63;;
12271;SDS011;6198;51.446;6.698;2022-09-25T05:48:22;10.40;;;3.60;;
12271;SDS011;6198;51.446;6.698;2022-09-25T05:50:51;14.57;;;4.40;;
12271;SDS011;6198;51.446;6.698;2022-09-25T05:53:18;10.03;;;3.87;;
12271;SDS011;6198;51.446;6.698;2022-09-25T05:55:54;16.60;;;4.00;;
12271;SDS011;6198;51.446;6.698;2022-09-25T05:58:22;8.13;;;3.50;;
12271;SDS011;6198;51.446;6.698;2022-09-25T06:00:48;13.83;;;3.70;;
12271;SDS011;6198;51.446;6.698;2022-09-25T06:03:14;11.47;;;4.10;;
12271;SDS011;6198;51.446;6.698;2022-09-25T06:05:40;9.83;;;3.93;;
12271;SDS011;6198;51.446;6.698;2022-09-25T06:08:07;7.53;;;3.50;;
12271;SDS011;6198;51.446;6.698;2022-09-25T06:10:33;8.87;;;3.83;;
12271;SDS011;6198;51.446;6.698;2022-09-25T06:13:00;13.47;;;4.27;;
12271;SDS011;6198;51.446;6.698;2022-09-25T06:15:27;13.70;;;4.80;;
12271;SDS011;6198;51.446;6.698;2022-09-25T06:17:53;14.50;;;3.93;;
12271;SDS011;6198;51.446;6.698;2022-09-25T06:20:20;11.50;;;3.30;;
12271;SDS011;6198;51.446;6.698;2022-09-25T06:22:56;12.27;;;4.30;;
12271;SDS011;6198;51.446;6.698;2022-09-25T06:25:22;15.90;;;4.07;;
12271;SDS011;6198;51.446;6.698;2022-09-25T06:27:53;13.67;;;4.57;;
12271;SDS011;6198;51.446;6.698;2022-09-25T06:30:19;13.90;;;3.93;;
12271;SDS011;6198;51.446;6.698;2022-09-25T06:32:46;8.70;;;3.37;;
12271;SDS011;6198;51.446;6.698;2022-09-25T06:35:12;11.67;;;4.23;;
12271;SDS011;6198;51.446;6.698;2022-09-25T06:37:38;17.87;;;4.13;;
12271;SDS011;6198;51.446;6.698;2022-09-25T06:40:05;14.20;;;4.73;;
12271;SDS011;6198;51.446;6.698;2022-09-25T06:42:31;10.17;;;3.83;;
12271;SDS011;6198;51.446;6.698;2022-09-25T06:44:59;9.67;;;3.47;;
12271;SDS011;6198;51.446;6.698;2022-09-25T06:47:25;11.93;;;3.87;;
12271;SDS011;6198;51.446;6.698;2022-09-25T06:49:51;12.07;;;3.77;;
12271;SDS011;6198;51.446;6.698;2022-09-25T06:52:16;10.70;;;4.00;;
12271;SDS011;6198;51.446;6.698;2022-09-25T06:54:43;8.33;;;3.90;;
12271;SDS011;6198;51.446;6.698;2022-09-25T06:57:09;11.90;;;3.17;;
12271;SDS011;6198;51.446;6.698;2022-09-25T06:59:36;11.27;;;3.20;;
12271;SDS011;6198;51.446;6.698;2022-09-25T07:02:02;8.97;;;3.27;;
12271;SDS011;6198;51.446;6.698;2022-09-25T07:04:47;11.33;;;3.57;;
12271;SDS011;6198;51.446;6.698;2022-09-25T07:07:15;8.47;;;3.43;;
12271;SDS011;6198;51.446;6.698;2022-09-25T07:09:43;10.67;;;3.70;;
12271;SDS011;6198;51.446;6.698;2022-09-25T07:12:09;11.83;;;3.40;;
12271;SDS011;6198;51.446;6.698;2022-09-25T07:14:35;10.37;;;3.03;;
12271;SDS011;6198;51.446;6.698;2022-09-25T07:17:02;10.67;;;3.93;;
12271;SDS011;6198;51.446;6.698;2022-09-25T07:19:28;8.23;;;2.80;;
12271;SDS011;6198;51.446;6.698;2022-09-25T07:21:54;10.80;;;3.30;;
12271;SDS011;6198;51.446;6.698;2022-09-25T07:24:20;9.77;;;3.43;;
12271;SDS011;6198;51.446;6.698;2022-09-25T07:26:46;11.43;;;3.37;;
12271;SDS011;6198;51.446;6.698;2022-09-25T07:29:12;6.90;;;2.40;;
12271;SDS011;6198;51.446;6.698;2022-09-25T07:31:38;10.53;;;3.17;;
12271;SDS011;6198;51.446;6.698;2022-09-25T07:34:04;12.57;;;2.97;;
12271;SDS011;6198;51.446;6.698;2022-09-25T07:36:33;8.90;;;3.07;;
12271;SDS011;6198;51.446;6.698;2022-09-25T07:38:59;9.03;;;3.50;;
12271;SDS011;6198;51.446;6.698;2022-09-25T07:41:25;7.63;;;3.20;;
12271;SDS011;6198;51.446;6.698;2022-09-25T07:43:52;12.07;;;3.43;;
12271;SDS011;6198;51.446;6.698;2022-09-25T07:46:20;9.73;;;2.70;;
12271;SDS011;6198;51.446;6.698;2022-09-25T07:48:47;12.87;;;2.90;;
12271;SDS011;6198;51.446;6.698;2022-09-25T07:51:13;8.23;;;2.90;;
12271;SDS011;6198;51.446;6.698;2022-09-25T07:53:39;8.17;;;3.40;;
12271;SDS011;6198;51.446;6.698;2022-09-25T07:56:05;10.60;;;3.67;;
12271;SDS011;6198;51.446;6.698;2022-09-25T07:58:31;8.20;;;2.80;;
12271;SDS011;6198;51.446;6.698;2022-09-25T08:00:58;7.37;;;2.43;;
12271;SDS011;6198;51.446;6.698;2022-09-25T08:03:24;8.60;;;2.93;;
12271;SDS011;6198;51.446;6.698;2022-09-25T08:05:57;12.73;;;3.57;;
12271;SDS011;6198;51.446;6.698;2022-09-25T08:08:24;7.30;;;2.60;;
12271;SDS011;6198;51.446;6.698;2022-09-25T08:10:50;13.00;;;2.93;;
12271;SDS011;6198;51.446;6.698;2022-09-25T08:13:16;13.93;;;3.07;;
12271;SDS011;6198;51.446;6.698;2022-09-25T08:15:44;8.63;;;3.00;;
12271;SDS011;6198;51.446;6.698;2022-09-25T08:18:10;7.07;;;2.60;;
12271;SDS011;6198;51.446;6.698;2022-09-25T08:20:36;9.10;;;2.93;;
12271;SDS011;6198;51.446;6.698;2022-09-25T08:23:04;8.77;;;2.67;;
12271;SDS011;6198;51.446;6.698;2022-09-25T08:25:30;6.30;;;2.43;;
12271;SDS011;6198;51.446;6.698;2022-09-25T08:27:56;10.80;;;3.47;;
12271;SDS011;6198;51.446;6.698;2022-09-25T08:30:21;5.83;;;2.37;;
12271;SDS011;6198;51.446;6.698;2022-09-25T08:32:48;7.93;;;2.50;;
12271;SDS011;6198;51.446;6.698;2022-09-25T08:35:16;10.07;;;2.63;;
12271;SDS011;6198;51.446;6.698;2022-09-25T08:37:42;6.67;;;2.20;;
12271;SDS011;6198;51.446;6.698;2022-09-25T08:40:19;4.40;;;2.10;;
12271;SDS011;6198;51.446;6.698;2022-09-25T08:42:46;11.57;;;2.43;;
12271;SDS011;6198;51.446;6.698;2022-09-25T08:45:24;7.33;;;3.07;;
12271;SDS011;6198;51.446;6.698;2022-09-25T08:48:23;11.70;;;2.33;;
12271;SDS011;6198;51.446;6.698;2022-09-25T08:51:09;8.73;;;2.40;;
12271;SDS011;6198;51.446;6.698;2022-09-25T08:53:35;9.73;;;3.13;;
12271;SDS011;6198;51.446;6.698;2022-09-25T08:56:03;9.73;;;2.60;;
12271;SDS011;6198;51.446;6.698;2022-09-25T08:58:39;8.70;;;2.20;;
12271;SDS011;6198;51.446;6.698;2022-09-25T09:01:07;9.63;;;2.20;;
12271;SDS011;6198;51.446;6.698;2022-09-25T09:03:39;10.27;;;2.47;;
12271;SDS011;6198;51.446;6.698;2022-09-25T09:06:10;5.50;;;2.10;;
12271;SDS011;6198;51.446;6.698;2022-09-25T09:08:37;5.07;;;2.20;;
12271;SDS011;6198;51.446;6.698;2022-09-25T09:11:12;10.20;;;2.53;;
12271;SDS011;6198;51.446;6.698;2022-09-25T09:18:35;6.80;;;1.83;;
12271;SDS011;6198;51.446;6.698;2022-09-25T09:21:11;7.23;;;2.17;;
12271;SDS011;6198;51.446;6.698;2022-09-25T09:26:07;12.80;;;2.17;;
12271;SDS011;6198;51.446;6.698;2022-09-25T09:41:37;5.50;;;1.60;;
12271;SDS011;6198;51.446;6.698;2022-09-25T09:46:43;8.87;;;2.43;;
12271;SDS011;6198;51.446;6.698;2022-09-25T09:51:43;6.57;;;1.80;;
12271;SDS011;6198;51.446;6.698;2022-09-25T09:54:12;4.37;;;1.40;;
12271;SDS011;6198;51.446;6.698;2022-09-25T09:56:41;7.67;;;1.80;;
12271;SDS011;6198;51.446;6.698;2022-09-25T09:59:15;5.77;;;1.83;;
12271;SDS011;6198;51.446;6.698;2022-09-25T10:01:43;4.23;;;1.90;;
12271;SDS011;6198;51.446;6.698;2022-09-25T10:04:19;4.80;;;2.00;;
12271;SDS011;6198;51.446;6.698;2022-09-25T10:06:58;5.03;;;1.50;;
12271;SDS011;6198;51.446;6.698;2022-09-25T10:09:26;6.43;;;1.97;;
12271;SDS011;6198;51.446;6.698;2022-09-25T10:11:58;7.07;;;1.53;;
12271;SDS011;6198;51.446;6.698;2022-09-25T10:14:26;10.80;;;2.20;;
12271;SDS011;6198;51.446;6.698;2022-09-25T10:16:54;6.30;;;2.00;;
12271;SDS011;6198;51.446;6.698;2022-09-25T10:19:21;6.23;;;1.80;;
12271;SDS011;6198;51.446;6.698;2022-09-25T10:21:50;3.00;;;1.50;;
12271;SDS011;6198;51.446;6.698;2022-09-25T10:27:18;7.37;;;1.63;;
12271;SDS011;6198;51.446;6.698;2022-09-25T10:29:44;7.53;;;1.93;;
12271;SDS011;6198;51.446;6.698;2022-09-25T10:32:10;5.70;;;2.00;;
12271;SDS011;6198;51.446;6.698;2022-09-25T10:34:36;4.10;;;1.83;;
12271;SDS011;6198;51.446;6.698;2022-09-25T10:37:13;6.73;;;1.87;;
12271;SDS011;6198;51.446;6.698;2022-09-25T10:39:44;8.77;;;1.93;;
12271;SDS011;6198;51.446;6.698;2022-09-25T10:44:57;8.00;;;2.17;;
12271;SDS011;6198;51.446;6.698;2022-09-25T10:52:50;4.97;;;1.90;;
12271;SDS011;6198;51.446;6.698;2022-09-25T10:57:48;5.27;;;1.70;;
12271;SDS011;6198;51.446;6.698;2022-09-25T11:00:20;4.53;;;1.63;;
12271;SDS011;6198;51.446;6.698;2022-09-25T11:02:46;8.37;;;2.00;;
12271;SDS011;6198;51.446;6.698;2022-09-25T11:05:18;2.93;;;1.40;;
12271;SDS011;6198;51.446;6.698;2022-09-25T11:07:49;4.70;;;1.57;;
12271;SDS011;6198;51.446;6.698;2022-09-25T11:10:20;5.20;;;2.30;;
12271;SDS011;6198;51.446;6.698;2022-09-25T11:12:47;5.90;;;1.67;;
12271;SDS011;6198;51.446;6.698;2022-09-25T11:15:16;4.87;;;1.90;;
12271;SDS011;6198;51.446;6.698;2022-09-25T11:17:43;3.40;;;1.70;;
12271;SDS011;6198;51.446;6.698;2022-09-25T11:20:11;7.43;;;2.47;;
12271;SDS011;6198;51.446;6.698;2022-09-25T11:22:49;5.17;;;2.17;;
12271;SDS011;6198;51.446;6.698;2022-09-25T11:25:21;5.90;;;1.70;;
12271;SDS011;6198;51.446;6.698;2022-09-25T11:27:50;8.60;;;1.80;;
12271;SDS011;6198;51.446;6.698;2022-09-25T11:30:19;4.77;;;1.20;;
12271;SDS011;6198;51.446;6.698;2022-09-25T11:32:48;6.17;;;1.97;;
12271;SDS011;6198;51.446;6.698;2022-09-25T11:38:01;7.47;;;1.73;;
12271;SDS011;6198;51.446;6.698;2022-09-25T11:40:39;6.57;;;2.00;;
12271;SDS011;6198;51.446;6.698;2022-09-25T11:46:17;4.27;;;1.33;;
12271;SDS011;6198;51.446;6.698;2022-09-25T11:48:50;9.33;;;1.83;;
12271;SDS011;6198;51.446;6.698;2022-09-25T11:56:34;3.97;;;1.33;;
12271;SDS011;6198;51.446;6.698;2022-09-25T12:02:27;5.60;;;1.93;;
12271;SDS011;6198;51.446;6.698;2022-09-25T12:07:57;3.03;;;1.23;;
12271;SDS011;6198;51.446;6.698;2022-09-25T12:09:59;4.53;;;1.40;;
12271;SDS011;6198;51.446;6.698;2022-09-25T12:12:31;3.20;;;1.20;;
12271;SDS011;6198;51.446;6.698;2022-09-25T12:17:56;1.53;;;1.10;;
12271;SDS011;6198;51.446;6.698;2022-09-25T12:25:38;3.27;;;1.20;;
12271;SDS011;6198;51.446;6.698;2022-09-25T12:28:12;5.17;;;1.50;;
12271;SDS011;6198;51.446;6.698;2022-09-25T12:30:54;3.03;;;1.27;;
12271;SDS011;6198;51.446;6.698;2022-09-25T12:33:33;2.27;;;1.50;;
12271;SDS011;6198;51.446;6.698;2022-09-25T12:36:09;5.13;;;1.37;;
12271;SDS011;6198;51.446;6.698;2022-09-25T12:41:27;7.77;;;1.33;;
12271;SDS011;6198;51.446;6.698;2022-09-25T12:44:00;3.40;;;1.57;;
12271;SDS011;6198;51.446;6.698;2022-09-25T12:46:38;3.43;;;1.63;;
12271;SDS011;6198;51.446;6.698;2022-09-25T12:49:20;2.47;;;1.10;;
12271;SDS011;6198;51.446;6.698;2022-09-25T12:51:51;4.53;;;2.43;;
12271;SDS011;6198;51.446;6.698;2022-09-25T12:56:57;4.00;;;1.60;;
12271;SDS011;6198;51.446;6.698;2022-09-25T13:07:37;3.53;;;1.50;;
12271;SDS011;6198;51.446;6.698;2022-09-25T13:10:12;4.83;;;2.00;;
12271;SDS011;6198;51.446;6.698;2022-09-25T13:12:42;4.07;;;2.23;;
12271;SDS011;6198;51.446;6.698;2022-09-25T13:15:14;3.17;;;1.33;;
12271;SDS011;6198;51.446;6.698;2022-09-25T13:17:40;4.13;;;2.10;;
12271;SDS011;6198;51.446;6.698;2022-09-25T13:22:51;4.60;;;1.80;;
12271;SDS011;6198;51.446;6.698;2022-09-25T13:25:20;2.43;;;1.50;;
12271;SDS011;6198;51.446;6.698;2022-09-25T13:27:47;4.47;;;1.50;;
12271;SDS011;6198;51.446;6.698;2022-09-25T13:32:49;3.77;;;1.50;;
12271;SDS011;6198;51.446;6.698;2022-09-25T13:35:17;2.13;;;1.40;;
12271;SDS011;6198;51.446;6.698;2022-09-25T13:37:43;5.27;;;1.50;;
12271;SDS011;6198;51.446;6.698;2022-09-25T13:40:17;2.97;;;1.20;;
12271;SDS011;6198;51.446;6.698;2022-09-25T13:43:24;8.63;;;1.67;;
12271;SDS011;6198;51.446;6.698;2022-09-25T13:48:37;3.50;;;1.30;;
12271;SDS011;6198;51.446;6.698;2022-09-25T13:56:21;3.73;;;1.20;;
12271;SDS011;6198;51.446;6.698;2022-09-25T14:06:44;2.93;;;1.57;;
12271;SDS011;6198;51.446;6.698;2022-09-25T14:09:12;5.27;;;1.47;;
12271;SDS011;6198;51.446;6.698;2022-09-25T14:11:39;2.10;;;1.30;;
12271;SDS011;6198;51.446;6.698;2022-09-25T14:14:07;3.37;;;1.57;;
12271;SDS011;6198;51.446;6.698;2022-09-25T14:16:43;5.60;;;1.70;;
12271;SDS011;6198;51.446;6.698;2022-09-25T14:19:13;7.30;;;2.50;;
12271;SDS011;6198;51.446;6.698;2022-09-25T14:21:42;2.53;;;1.40;;
12271;SDS011;6198;51.446;6.698;2022-09-25T14:26:48;2.83;;;1.50;;
12271;SDS011;6198;51.446;6.698;2022-09-25T14:29:18;7.53;;;1.50;;
12271;SDS011;6198;51.446;6.698;2022-09-25T14:31:51;3.13;;;1.50;;
12271;SDS011;6198;51.446;6.698;2022-09-25T14:36:57;3.93;;;1.50;;
12271;SDS011;6198;51.446;6.698;2022-09-25T14:39:39;4.73;;;1.37;;
12271;SDS011;6198;51.446;6.698;2022-09-25T14:47:25;3.83;;;1.60;;
12271;SDS011;6198;51.446;6.698;2022-09-25T14:49:54;4.27;;;1.50;;
12271;SDS011;6198;51.446;6.698;2022-09-25T14:52:21;4.47;;;1.50;;
12271;SDS011;6198;51.446;6.698;2022-09-25T14:54:48;3.37;;;1.40;;
12271;SDS011;6198;51.446;6.698;2022-09-25T14:57:16;5.03;;;1.40;;
12271;SDS011;6198;51.446;6.698;2022-09-25T14:59:49;3.90;;;1.57;;
12271;SDS011;6198;51.446;6.698;2022-09-25T15:02:37;3.30;;;1.97;;
12271;SDS011;6198;51.446;6.698;2022-09-25T15:07:47;4.60;;;1.40;;
12271;SDS011;6198;51.446;6.698;2022-09-25T15:15:57;5.50;;;1.40;;
12271;SDS011;6198;51.446;6.698;2022-09-25T15:18:42;4.83;;;1.53;;
12271;SDS011;6198;51.446;6.698;2022-09-25T15:23:54;2.00;;;1.47;;
12271;SDS011;6198;51.446;6.698;2022-09-25T15:26:21;5.50;;;1.37;;
12271;SDS011;6198;51.446;6.698;2022-09-25T15:28:47;3.77;;;1.20;;
12271;SDS011;6198;51.446;6.698;2022-09-25T15:31:15;1.97;;;1.47;;
12271;SDS011;6198;51.446;6.698;2022-09-25T15:33:41;3.77;;;1.43;;
12271;SDS011;6198;51.446;6.698;2022-09-25T15:36:18;4.80;;;1.57;;
12271;SDS011;6198;51.446;6.698;2022-09-25T15:38:51;4.43;;;1.83;;
12271;SDS011;6198;51.446;6.698;2022-09-25T15:41:17;4.10;;;1.50;;
12271;SDS011;6198;51.446;6.698;2022-09-25T15:43:43;4.20;;;1.57;;
12271;SDS011;6198;51.446;6.698;2022-09-25T15:48:36;4.30;;;2.33;;
12271;SDS011;6198;51.446;6.698;2022-09-25T15:51:11;3.10;;;2.10;;
12271;SDS011;6198;51.446;6.698;2022-09-25T15:53:38;4.37;;;1.80;;
12271;SDS011;6198;51.446;6.698;2022-09-25T15:56:15;2.97;;;1.50;;
12271;SDS011;6198;51.446;6.698;2022-09-25T15:58:46;3.43;;;1.47;;
12271;SDS011;6198;51.446;6.698;2022-09-25T16:01:13;2.17;;;1.37;;
12271;SDS011;6198;51.446;6.698;2022-09-25T16:03:59;3.30;;;1.40;;
12271;SDS011;6198;51.446;6.698;2022-09-25T16:06:44;5.00;;;1.50;;
12271;SDS011;6198;51.446;6.698;2022-09-25T16:09:21;3.63;;;1.50;;
12271;SDS011;6198;51.446;6.698;2022-09-25T16:11:47;3.17;;;1.53;;
12271;SDS011;6198;51.446;6.698;2022-09-25T16:14:18;2.47;;;1.50;;
12271;SDS011;6198;51.446;6.698;2022-09-25T16:16:46;3.10;;;1.60;;
12271;SDS011;6198;51.446;6.698;2022-09-25T16:19:25;4.20;;;2.00;;
12271;SDS011;6198;51.446;6.698;2022-09-25T16:21:52;7.90;;;4.93;;
12271;SDS011;6198;51.446;6.698;2022-09-25T16:24:22;6.13;;;3.47;;
12271;SDS011;6198;51.446;6.698;2022-09-25T16:26:56;2.60;;;2.40;;
12271;SDS011;6198;51.446;6.698;2022-09-25T16:29:23;3.37;;;2.33;;
12271;SDS011;6198;51.446;6.698;2022-09-25T16:31:51;3.73;;;1.80;;
12271;SDS011;6198;51.446;6.698;2022-09-25T16:34:22;7.87;;;4.93;;
12271;SDS011;6198;51.446;6.698;2022-09-25T16:36:51;12.97;;;7.07;;
12271;SDS011;6198;51.446;6.698;2022-09-25T16:39:28;3.77;;;1.90;;
12271;SDS011;6198;51.446;6.698;2022-09-25T16:41:55;3.83;;;1.70;;
12271;SDS011;6198;51.446;6.698;2022-09-25T16:49:20;2.03;;;1.80;;
12271;SDS011;6198;51.446;6.698;2022-09-25T16:51:46;4.90;;;2.40;;
12271;SDS011;6198;51.446;6.698;2022-09-25T16:54:14;4.00;;;2.40;;
12271;SDS011;6198;51.446;6.698;2022-09-25T16:56:41;4.77;;;2.20;;
12271;SDS011;6198;51.446;6.698;2022-09-25T16:59:17;3.57;;;2.10;;
12271;SDS011;6198;51.446;6.698;2022-09-25T17:01:45;3.50;;;2.30;;
12271;SDS011;6198;51.446;6.698;2022-09-25T17:04:11;4.20;;;2.43;;
12271;SDS011;6198;51.446;6.698;2022-09-25T17:06:39;3.70;;;2.23;;
12271;SDS011;6198;51.446;6.698;2022-09-25T17:09:11;2.47;;;2.03;;
12271;SDS011;6198;51.446;6.698;2022-09-25T17:11:38;4.47;;;2.53;;
12271;SDS011;6198;51.446;6.698;2022-09-25T17:14:05;3.23;;;2.83;;
12271;SDS011;6198;51.446;6.698;2022-09-25T17:16:32;3.77;;;2.60;;
12271;SDS011;6198;51.446;6.698;2022-09-25T17:18:58;4.43;;;2.53;;
12271;SDS011;6198;51.446;6.698;2022-09-25T17:21:24;4.47;;;2.17;;
12271;SDS011;6198;51.446;6.698;2022-09-25T17:23:50;4.63;;;2.40;;
12271;SDS011;6198;51.446;6.698;2022-09-25T17:26:20;2.97;;;1.80;;
12271;SDS011;6198;51.446;6.698;2022-09-25T17:28:47;4.90;;;2.33;;
12271;SDS011;6198;51.446;6.698;2022-09-25T17:31:16;5.07;;;2.53;;
12271;SDS011;6198;51.446;6.698;2022-09-25T17:33:44;9.70;;;4.23;;
12271;SDS011;6198;51.446;6.698;2022-09-25T17:36:10;48.10;;;31.50;;
12271;SDS011;6198;51.446;6.698;2022-09-25T17:38:36;31.73;;;23.77;;
12271;SDS011;6198;51.446;6.698;2022-09-25T17:41:06;24.10;;;16.90;;
12271;SDS011;6198;51.446;6.698;2022-09-25T17:43:37;17.27;;;13.07;;
12271;SDS011;6198;51.446;6.698;2022-09-25T17:46:05;11.33;;;5.17;;
12271;SDS011;6198;51.446;6.698;2022-09-25T17:48:31;22.07;;;10.33;;
12271;SDS011;6198;51.446;6.698;2022-09-25T17:50:58;18.03;;;8.97;;